createdAt,value
2023-05-02T00:00:10.420Z,24.0413
2023-05-02T00:01:11.821Z,24.0529
2023-05-02T00:02:13.231Z,24.0477
2023-05-02T00:03:14.666Z,24.0730
2023-05-02T00:04:16.137Z,24.1025
2023-05-02T00:05:17.457Z,24.1290
2023-05-02T00:06:18.948Z,24.1323
2023-05-02T00:07:20.349Z,24.0999
2023-05-02T00:08:21.718Z,24.0936
2023-05-02T00:09:23.290Z,24.0930
2023-05-02T00:10:24.643Z,24.1132
2023-05-02T00:11:26.143Z,24.0882
2023-05-02T00:12:27.402Z,24.0527
2023-05-02T00:13:28.913Z,24.0455
2023-05-02T00:14:30.309Z,24.0431
2023-05-02T00:15:31.780Z,24.0322
2023-05-02T00:16:33.302Z,24.0377
2023-05-02T00:17:34.690Z,24.0304
2023-05-02T00:18:36.025Z,24.0426
2023-05-02T00:19:37.447Z,24.0407
2023-05-02T00:20:38.966Z,24.0426
2023-05-02T00:21:40.326Z,24.0370
2023-05-02T00:22:41.672Z,24.0306
2023-05-02T00:23:43.118Z,24.0271
2023-05-02T00:24:44.518Z,24.0235
2023-05-02T00:25:46.007Z,24.0271
2023-05-02T00:26:47.463Z,24.0419
2023-05-02T00:27:48.797Z,24.0414
2023-05-02T00:28:50.145Z,24.0262
2023-05-02T00:29:51.671Z,24.0270
2023-05-02T00:30:53.090Z,24.0268
2023-05-02T00:31:54.569Z,24.0276
2023-05-02T00:32:55.973Z,24.0194
2023-05-02T00:33:57.390Z,24.0149
2023-05-02T00:34:58.766Z,24.0148
2023-05-02T00:36:00.210Z,23.9956
2023-05-02T00:37:01.600Z,24.0007
2023-05-02T00:38:03.102Z,24.0088
2023-05-02T00:39:04.409Z,24.0049
2023-05-02T00:40:05.889Z,24.0008
2023-05-02T00:41:07.237Z,24.0043
2023-05-02T00:42:08.694Z,24.0121
2023-05-02T00:43:10.098Z,24.0115
2023-05-02T00:44:11.537Z,24.0209
2023-05-02T00:45:12.920Z,24.0320
2023-05-02T00:46:14.374Z,24.0256
2023-05-02T00:47:15.793Z,24.0119
2023-05-02T00:48:17.205Z,23.9973
2023-05-02T00:49:18.541Z,23.9965
2023-05-02T00:50:20.036Z,24.0051
2023-05-02T00:51:21.418Z,24.0062
2023-05-02T00:52:22.931Z,23.9900
2023-05-02T00:53:24.264Z,23.9916
2023-05-02T00:54:25.726Z,23.9864
2023-05-02T00:55:27.103Z,23.9835
2023-05-02T00:56:28.545Z,24.0180
2023-05-02T00:57:30.006Z,24.0611
2023-05-02T00:58:31.418Z,24.0620
2023-05-02T00:59:32.798Z,24.0365
2023-05-02T01:00:34.246Z,24.0163
2023-05-02T01:01:35.576Z,24.0029
2023-05-02T01:02:37.279Z,24.0298
2023-05-02T01:03:38.590Z,24.0392
2023-05-02T01:04:39.980Z,24.0045
2023-05-02T01:05:41.329Z,23.9849
2023-05-02T01:06:42.898Z,23.9859
2023-05-02T01:07:44.179Z,24.0204
2023-05-02T01:08:45.600Z,24.0167
2023-05-02T01:09:46.991Z,24.0034
2023-05-02T01:10:48.416Z,23.9920
2023-05-02T01:11:49.820Z,23.9749
2023-05-02T01:12:51.307Z,23.9832
2023-05-02T01:13:52.662Z,23.9755
2023-05-02T01:14:54.134Z,23.9736
2023-05-02T01:15:55.506Z,23.9694
2023-05-02T01:16:56.996Z,23.9554
2023-05-02T01:17:58.499Z,23.9302
2023-05-02T01:18:59.818Z,23.9270
2023-05-02T01:20:01.331Z,23.9384
2023-05-02T01:21:02.657Z,23.9169
2023-05-02T01:22:04.066Z,23.9098
2023-05-02T01:23:05.456Z,23.9013
2023-05-02T01:24:06.863Z,23.9067
2023-05-02T01:25:08.178Z,23.9131
2023-05-02T01:26:09.715Z,23.9168
2023-05-02T01:27:11.105Z,23.9079
2023-05-02T01:28:12.595Z,23.9092
2023-05-02T01:29:13.859Z,23.9094
2023-05-02T01:30:15.400Z,23.9075
2023-05-02T01:31:16.826Z,23.9008
2023-05-02T01:32:18.250Z,23.8974
2023-05-02T01:33:19.684Z,23.8881
2023-05-02T01:34:21.091Z,23.9020
2023-05-02T01:35:22.402Z,23.9206
2023-05-02T01:36:23.943Z,23.9139
2023-05-02T01:37:25.328Z,23.9179
2023-05-02T01:38:26.842Z,23.9256
2023-05-02T01:39:28.122Z,23.9093
2023-05-02T01:40:29.585Z,23.8962
2023-05-02T01:41:30.974Z,23.9011
2023-05-02T01:42:32.423Z,23.8934
2023-05-02T01:43:33.834Z,23.8774
2023-05-02T01:44:35.260Z,23.8767
2023-05-02T01:45:36.621Z,23.8721
2023-05-02T01:46:38.176Z,23.8543
2023-05-02T01:47:39.509Z,23.8624
2023-05-02T01:48:40.975Z,23.8681
2023-05-02T01:49:42.342Z,23.8568
2023-05-02T01:50:43.800Z,23.8499
2023-05-02T01:51:45.117Z,23.8592
2023-05-02T01:52:46.641Z,23.8557
2023-05-02T01:53:48.094Z,23.8533
2023-05-02T01:54:49.469Z,23.8533
2023-05-02T01:55:50.844Z,23.8415
2023-05-02T01:56:52.310Z,23.8373
2023-05-02T01:57:53.693Z,23.8291
2023-05-02T01:58:55.190Z,23.8184
2023-05-02T01:59:56.580Z,23.8141
2023-05-02T02:00:58.022Z,23.8123
2023-05-02T02:01:59.362Z,23.8172
2023-05-02T02:03:00.808Z,23.8161
2023-05-02T02:04:02.339Z,23.8122
2023-05-02T02:05:03.699Z,23.8081
2023-05-02T02:06:05.127Z,23.8118
2023-05-02T02:07:06.650Z,23.8015
2023-05-02T02:08:07.948Z,23.7950
2023-05-02T02:09:09.462Z,23.7903
2023-05-02T02:10:10.788Z,23.8082
2023-05-02T02:11:12.235Z,23.8103
2023-05-02T02:12:13.652Z,23.8239
2023-05-02T02:13:15.147Z,23.8416
2023-05-02T02:14:16.499Z,23.8467
2023-05-02T02:15:17.968Z,23.8458
2023-05-02T02:16:19.400Z,23.8646
2023-05-02T02:17:20.762Z,23.8651
2023-05-02T02:18:22.159Z,23.8652
2023-05-02T02:19:23.664Z,23.8868
2023-05-02T02:20:25.068Z,23.9129
2023-05-02T02:21:26.434Z,23.9281
2023-05-02T02:22:27.852Z,23.9378
2023-05-02T02:23:29.341Z,23.9390
2023-05-02T02:24:30.738Z,23.9258
2023-05-02T02:25:32.173Z,23.9149
2023-05-02T02:26:33.530Z,23.9133
2023-05-02T02:27:34.986Z,23.9039
2023-05-02T02:28:36.431Z,23.9064
2023-05-02T02:29:37.875Z,23.9214
2023-05-02T02:30:39.379Z,23.9228
2023-05-02T02:31:40.657Z,23.9257
2023-05-02T02:32:42.146Z,23.8914
2023-05-02T02:33:43.496Z,23.8758
2023-05-02T02:34:45.056Z,23.8752
2023-05-02T02:35:46.389Z,23.8933
2023-05-02T02:36:47.804Z,23.8873
2023-05-02T02:37:49.185Z,23.8775
2023-05-02T02:38:50.652Z,23.8789
2023-05-02T02:39:52.107Z,23.8968
2023-05-02T02:40:53.514Z,23.9506
2023-05-02T02:41:54.902Z,23.9225
2023-05-02T02:42:56.338Z,23.8904
2023-05-02T02:43:57.805Z,23.8847
2023-05-02T02:44:59.174Z,23.8751
2023-05-02T02:46:00.729Z,23.8567
2023-05-02T02:47:02.000Z,23.8593
2023-05-02T02:48:03.492Z,23.8514
2023-05-02T02:49:04.872Z,23.8483
2023-05-02T02:50:06.365Z,23.8541
2023-05-02T02:51:07.772Z,23.8426
2023-05-02T02:52:09.135Z,23.8448
2023-05-02T02:53:10.511Z,23.8332
2023-05-02T02:54:25.411Z,23.8230
2023-05-02T02:55:13.423Z,23.8227
2023-05-02T02:56:14.899Z,23.8487
2023-05-02T02:57:16.224Z,23.8660
2023-05-02T02:58:17.626Z,23.8513
2023-05-02T02:59:19.067Z,23.8376
2023-05-02T03:00:20.604Z,23.8432
2023-05-02T03:01:21.975Z,23.8506
2023-05-02T03:02:23.386Z,23.8509
2023-05-02T03:03:24.872Z,23.8640
2023-05-02T03:04:26.186Z,23.8790
2023-05-02T03:05:27.679Z,23.8669
2023-05-02T03:06:29.187Z,23.8560
2023-05-02T03:07:30.493Z,23.8600
2023-05-02T03:08:31.905Z,23.8461
2023-05-02T03:09:33.316Z,23.8396
2023-05-02T03:10:34.868Z,23.8338
2023-05-02T03:11:36.192Z,23.8252
2023-05-02T03:12:37.653Z,23.8379
2023-05-02T03:13:39.003Z,23.8379
2023-05-02T03:14:40.508Z,23.8367
2023-05-02T03:15:41.919Z,23.8512
2023-05-02T03:16:43.420Z,23.8482
2023-05-02T03:17:44.821Z,23.8349
2023-05-02T03:18:46.229Z,23.8453
2023-05-02T03:19:47.584Z,23.8582
2023-05-02T03:20:48.959Z,23.8719
2023-05-02T03:21:50.504Z,23.8809
2023-05-02T03:22:51.896Z,23.8807
2023-05-02T03:23:53.264Z,23.8909
2023-05-02T03:24:54.687Z,23.8799
2023-05-02T03:25:56.072Z,23.8801
2023-05-02T03:26:57.568Z,23.8718
2023-05-02T03:27:58.953Z,23.8543
2023-05-02T03:29:00.364Z,23.8511
2023-05-02T03:30:02.084Z,23.8416
2023-05-02T03:31:03.260Z,23.8496
2023-05-02T03:32:04.750Z,23.8610
2023-05-02T03:33:06.100Z,23.8675
2023-05-02T03:34:07.513Z,23.8629
2023-05-02T03:35:08.913Z,23.8551
2023-05-02T03:36:10.338Z,23.8418
2023-05-02T03:37:11.759Z,23.8337
2023-05-02T03:38:13.287Z,23.8285
2023-05-02T03:39:14.594Z,23.8223
2023-05-02T03:40:16.052Z,23.8337
2023-05-02T03:41:17.346Z,23.8277
2023-05-02T03:42:18.910Z,23.8221
2023-05-02T03:43:20.332Z,23.8434
2023-05-02T03:44:21.781Z,23.8448
2023-05-02T03:45:23.152Z,23.8474
2023-05-02T03:46:24.617Z,23.8457
2023-05-02T03:47:26.032Z,23.8439
2023-05-02T03:48:27.496Z,23.8229
2023-05-02T03:49:28.805Z,23.8487
2023-05-02T03:50:30.294Z,23.8563
2023-05-02T03:51:31.604Z,23.8483
2023-05-02T03:52:33.125Z,23.8536
2023-05-02T03:53:34.562Z,23.8496
2023-05-02T03:54:36.040Z,23.8401
2023-05-02T03:55:37.405Z,23.8454
2023-05-02T03:56:40.202Z,23.8418
2023-05-02T03:57:40.259Z,23.8378
2023-05-02T03:58:41.721Z,23.8495
2023-05-02T03:59:43.160Z,23.8560
2023-05-02T04:00:44.552Z,23.8695
2023-05-02T04:01:45.969Z,23.8535
2023-05-02T04:02:47.495Z,23.8360
2023-05-02T04:03:48.900Z,23.8222
2023-05-02T04:04:50.287Z,23.8133
2023-05-02T04:05:51.676Z,23.8168
2023-05-02T04:06:53.185Z,23.8358
2023-05-02T04:07:54.469Z,23.8416
2023-05-02T04:08:56.001Z,23.8310
2023-05-02T04:09:57.439Z,23.8405
2023-05-02T04:10:58.748Z,23.8404
2023-05-02T04:12:00.256Z,23.8489
2023-05-02T04:13:01.716Z,23.8701
2023-05-02T04:14:03.164Z,23.8948
2023-05-02T04:15:04.615Z,23.9173
2023-05-02T04:16:05.982Z,23.9135
2023-05-02T04:17:07.543Z,23.8856
2023-05-02T04:18:08.891Z,23.8759
2023-05-02T04:19:10.829Z,23.8939
2023-05-02T04:20:11.696Z,23.9149
2023-05-02T04:21:13.073Z,23.9249
2023-05-02T04:22:14.478Z,23.9348
2023-05-02T04:23:15.922Z,23.9172
2023-05-02T04:24:17.389Z,23.9186
2023-05-02T04:25:18.867Z,23.9042
2023-05-02T04:26:20.108Z,23.9007
2023-05-02T04:27:21.622Z,23.9183
2023-05-02T04:28:23.113Z,23.9440
2023-05-02T04:29:24.506Z,23.9294
2023-05-02T04:30:25.932Z,23.9276
2023-05-02T04:31:27.406Z,23.9171
2023-05-02T04:32:28.802Z,23.9238
2023-05-02T04:33:30.120Z,23.9334
2023-05-02T04:34:31.591Z,23.9445
2023-05-02T04:35:32.987Z,23.9501
2023-05-02T04:36:34.390Z,23.9483
2023-05-02T04:37:35.783Z,23.9518
2023-05-02T04:38:37.224Z,23.9669
2023-05-02T04:39:38.613Z,23.9712
2023-05-02T04:40:40.120Z,23.9641
2023-05-02T04:41:41.486Z,23.9740
2023-05-02T04:42:42.925Z,23.9642
2023-05-02T04:43:44.358Z,23.9615
2023-05-02T04:44:45.814Z,23.9448
2023-05-02T04:45:47.112Z,23.9149
2023-05-02T04:46:48.613Z,23.9167
2023-05-02T04:47:50.028Z,23.9024
2023-05-02T04:48:51.472Z,23.9139
2023-05-02T04:49:52.875Z,23.9258
2023-05-02T04:50:54.403Z,23.9215
2023-05-02T04:51:55.733Z,23.8986
2023-05-02T04:52:57.121Z,23.9015
2023-05-02T04:53:58.523Z,23.9043
2023-05-02T04:55:00.001Z,23.8989
2023-05-02T04:56:01.351Z,23.8790
2023-05-02T04:57:02.792Z,23.8840
2023-05-02T04:58:04.173Z,23.8894
2023-05-02T04:59:05.617Z,23.8844
2023-05-02T05:00:07.042Z,23.8845
2023-05-02T05:01:08.557Z,23.8773
2023-05-02T05:02:09.991Z,23.8805
2023-05-02T05:03:11.383Z,23.8896
2023-05-02T05:04:12.810Z,23.9119
2023-05-02T05:05:14.215Z,23.9220
2023-05-02T05:06:15.676Z,23.7910
2023-05-02T05:07:17.003Z,23.7082
2023-05-02T05:08:18.366Z,23.6911
2023-05-02T05:09:19.881Z,23.6371
2023-05-02T05:10:21.203Z,23.5585
2023-05-02T05:11:23.375Z,23.4900
2023-05-02T05:12:24.095Z,23.4636
2023-05-02T05:13:25.479Z,23.5265
2023-05-02T05:14:26.902Z,23.6345
2023-05-02T05:15:28.322Z,23.7237
2023-05-02T05:16:29.841Z,23.7443
2023-05-02T05:17:31.240Z,23.7257
2023-05-02T05:18:32.589Z,23.6972
2023-05-02T05:19:34.010Z,23.6740
2023-05-02T05:20:35.480Z,23.6842
2023-05-02T05:21:36.892Z,23.6893
2023-05-02T05:22:38.284Z,23.7065
2023-05-02T05:23:39.630Z,23.7088
2023-05-02T05:24:41.080Z,23.7153
2023-05-02T05:25:44.249Z,23.7250
2023-05-02T05:26:43.949Z,23.7146
2023-05-02T05:27:45.355Z,23.6986
2023-05-02T05:28:46.759Z,23.6960
2023-05-02T05:29:48.072Z,23.7089
2023-05-02T05:30:49.621Z,23.7096
2023-05-02T05:31:51.074Z,23.7498
2023-05-02T05:32:52.437Z,23.8309
2023-05-02T05:33:53.883Z,23.8613
2023-05-02T05:34:55.281Z,23.9116
2023-05-02T05:35:56.712Z,23.9067
2023-05-02T05:36:58.104Z,23.9522
2023-05-02T05:37:59.564Z,24.0106
2023-05-02T05:39:00.921Z,24.0335
2023-05-02T05:40:02.899Z,24.0160
2023-05-02T05:41:03.759Z,23.9965
2023-05-02T05:42:05.264Z,24.0758
2023-05-02T05:43:06.688Z,24.0881
2023-05-02T05:44:08.077Z,24.1101
2023-05-02T05:45:09.445Z,24.0417
2023-05-02T05:46:10.881Z,23.9967
2023-05-02T05:47:12.490Z,24.0010
2023-05-02T05:48:13.846Z,23.9626
2023-05-02T05:49:15.144Z,23.9315
2023-05-02T05:50:16.623Z,23.8998
2023-05-02T05:51:17.989Z,23.8819
2023-05-02T05:52:19.525Z,23.8633
2023-05-02T05:53:20.896Z,23.8677
2023-05-02T05:54:22.298Z,23.8638
2023-05-02T05:55:23.656Z,23.8654
2023-05-02T05:56:25.100Z,23.8626
2023-05-02T05:57:26.529Z,23.8695
2023-05-02T05:58:27.979Z,23.8709
2023-05-02T05:59:29.328Z,23.8733
2023-05-02T06:00:30.777Z,23.8653
2023-05-02T06:01:32.156Z,23.8498
2023-05-02T06:02:33.734Z,23.8715
2023-05-02T06:03:35.222Z,23.8791
2023-05-02T06:04:36.527Z,23.8797
2023-05-02T06:05:37.851Z,23.8663
2023-05-02T06:06:39.361Z,23.8779
2023-05-02T06:07:40.725Z,23.8561
2023-05-02T06:08:42.160Z,23.8602
2023-05-02T06:09:43.597Z,23.8816
2023-05-02T06:10:44.986Z,23.8913
2023-05-02T06:11:46.303Z,23.8857
2023-05-02T06:12:49.255Z,23.8771
2023-05-02T06:13:49.272Z,23.8724
2023-05-02T06:14:50.705Z,23.8842
2023-05-02T06:15:52.061Z,23.9034
2023-05-02T06:16:53.468Z,23.9087
2023-05-02T06:17:55.009Z,23.9089
2023-05-02T06:18:56.364Z,23.9108
2023-05-02T06:19:58.081Z,23.9231
2023-05-02T06:20:59.118Z,23.9316
2023-05-02T06:22:00.602Z,23.9242
2023-05-02T06:23:02.059Z,23.9114
2023-05-02T06:24:03.504Z,23.9255
2023-05-02T06:25:04.900Z,23.9328
2023-05-02T06:26:06.307Z,23.9214
2023-05-02T06:27:07.723Z,23.9149
2023-05-02T06:28:09.135Z,23.9082
2023-05-02T06:29:10.601Z,23.8900
2023-05-02T06:30:11.921Z,23.8971
2023-05-02T06:31:13.477Z,23.9373
2023-05-02T06:32:14.769Z,23.9416
2023-05-02T06:33:16.293Z,23.9337
2023-05-02T06:34:17.689Z,23.9386
2023-05-02T06:35:19.094Z,23.9412
2023-05-02T06:36:20.472Z,23.9418
2023-05-02T06:37:21.864Z,23.9366
2023-05-02T06:38:23.368Z,23.9377
2023-05-02T06:39:24.766Z,23.9464
2023-05-02T06:40:26.205Z,23.9248
2023-05-02T06:41:27.612Z,23.9078
2023-05-02T06:42:29.045Z,23.9315
2023-05-02T06:43:30.480Z,23.9949
2023-05-02T06:44:31.910Z,24.1014
2023-05-02T06:45:33.265Z,24.1557
2023-05-02T06:46:34.769Z,24.2109
2023-05-02T06:47:36.163Z,24.2778
2023-05-02T06:48:37.593Z,24.3188
2023-05-02T06:49:39.025Z,24.3314
2023-05-02T06:50:40.448Z,24.3779
2023-05-02T06:51:41.817Z,24.3972
2023-05-02T06:52:43.252Z,24.3907
2023-05-02T06:53:44.686Z,24.4114
2023-05-02T06:54:46.212Z,24.4524
2023-05-02T06:55:47.509Z,24.4681
2023-05-02T06:56:48.874Z,24.4970
2023-05-02T06:57:50.372Z,24.4978
2023-05-02T06:58:51.848Z,24.5211
2023-05-02T06:59:53.555Z,24.5075
2023-05-02T07:00:54.742Z,24.5009
2023-05-02T07:01:56.038Z,24.5343
2023-05-02T07:02:57.574Z,24.5751
2023-05-02T07:03:58.927Z,24.6018
2023-05-02T07:05:00.334Z,24.5820
2023-05-02T07:06:01.715Z,24.5645
2023-05-02T07:07:03.144Z,24.6077
2023-05-02T07:08:04.530Z,24.5930
2023-05-02T07:09:06.026Z,24.5962
2023-05-02T07:10:07.398Z,24.6441
2023-05-02T07:11:08.872Z,24.6483
2023-05-02T07:12:10.213Z,24.6184
2023-05-02T07:13:11.688Z,24.5934
2023-05-02T07:14:13.026Z,24.5668
2023-05-02T07:15:14.550Z,24.5685
2023-05-02T07:16:15.864Z,24.5184
2023-05-02T07:17:17.359Z,24.5193
2023-05-02T07:18:18.830Z,24.5576
2023-05-02T07:19:20.250Z,24.5645
2023-05-02T07:20:21.698Z,24.5649
2023-05-02T07:21:23.052Z,24.5382
2023-05-02T07:22:24.470Z,24.5512
2023-05-02T07:23:25.845Z,24.5836
2023-05-02T07:24:27.307Z,24.5759
2023-05-02T07:25:28.735Z,24.6034
2023-05-02T07:26:30.173Z,24.6572
2023-05-02T07:27:31.560Z,24.7245
2023-05-02T07:28:33.001Z,24.7437
2023-05-02T07:29:34.412Z,24.8100
2023-05-02T07:30:35.857Z,24.8145
2023-05-02T07:31:37.237Z,24.7252
2023-05-02T07:32:38.681Z,24.7378
2023-05-02T07:33:40.047Z,24.7274
2023-05-02T07:34:41.406Z,24.7038
2023-05-02T07:35:42.980Z,24.6820
2023-05-02T07:36:44.364Z,24.6490
2023-05-02T07:37:45.713Z,24.6356
2023-05-02T07:38:47.199Z,24.6529
2023-05-02T07:39:48.553Z,24.6042
2023-05-02T07:40:50.053Z,24.5614
2023-05-02T07:41:51.456Z,24.5606
2023-05-02T07:42:52.849Z,24.5958
2023-05-02T07:43:54.234Z,24.6598
2023-05-02T07:44:55.689Z,24.6815
2023-05-02T07:45:57.172Z,24.6574
2023-05-02T07:46:58.584Z,24.6410
2023-05-02T07:47:59.957Z,24.6274
2023-05-02T07:49:01.379Z,24.6411
2023-05-02T07:50:03.006Z,24.6802
2023-05-02T07:51:04.289Z,24.7233
2023-05-02T07:52:05.693Z,24.7029
2023-05-02T07:53:07.077Z,24.6797
2023-05-02T07:54:08.480Z,24.6087
2023-05-02T07:55:09.944Z,24.6003
2023-05-02T07:56:11.388Z,24.6424
2023-05-02T07:57:12.807Z,24.6748
2023-05-02T07:58:14.193Z,24.6126
2023-05-02T07:59:15.610Z,24.5944
2023-05-02T08:00:17.017Z,24.5448
2023-05-02T08:01:18.543Z,24.5554
2023-05-02T08:02:20.034Z,24.6214
2023-05-02T08:03:21.451Z,24.6299
2023-05-02T08:04:22.896Z,24.6388
2023-05-02T08:05:24.165Z,24.5914
2023-05-02T08:06:25.689Z,24.5773
2023-05-02T08:07:27.046Z,24.5123
2023-05-02T08:08:28.373Z,24.5220
2023-05-02T08:09:29.845Z,24.5357
2023-05-02T08:10:31.257Z,24.4753
2023-05-02T08:11:32.677Z,24.4084
2023-05-02T08:12:34.180Z,24.4221
2023-05-02T08:13:35.640Z,24.4877
2023-05-02T08:14:36.912Z,24.5371
2023-05-02T08:15:38.585Z,24.6062
2023-05-02T08:16:40.040Z,24.6398
2023-05-02T08:17:41.355Z,24.6519
2023-05-02T08:18:42.674Z,24.6277
2023-05-02T08:19:44.065Z,24.5632
2023-05-02T08:20:45.514Z,24.5727
2023-05-02T08:21:46.960Z,24.5571
2023-05-02T08:22:48.397Z,24.5064
2023-05-02T08:23:49.799Z,24.4860
2023-05-02T08:24:51.175Z,24.5031
2023-05-02T08:25:52.616Z,24.5330
2023-05-02T08:26:54.074Z,24.5824
2023-05-02T08:27:55.493Z,24.6261
2023-05-02T08:28:56.917Z,24.5764
2023-05-02T08:30:00.658Z,24.5483
2023-05-02T08:30:59.697Z,24.4916
2023-05-02T08:32:01.280Z,24.4775
2023-05-02T08:33:02.618Z,24.4901
2023-05-02T08:34:04.009Z,24.4823
2023-05-02T08:35:05.424Z,24.4519
2023-05-02T08:36:06.852Z,24.5123
2023-05-02T08:37:08.299Z,24.5465
2023-05-02T08:38:09.732Z,24.5495
2023-05-02T08:39:11.093Z,24.5135
2023-05-02T08:40:12.550Z,24.4734
2023-05-02T08:41:13.958Z,24.4156
2023-05-02T08:42:15.359Z,24.4262
2023-05-02T08:43:16.797Z,24.3660
2023-05-02T08:44:18.207Z,24.3583
2023-05-02T08:45:19.555Z,24.3539
2023-05-02T08:46:21.011Z,24.3073
2023-05-02T08:47:22.617Z,24.3651
2023-05-02T08:48:23.953Z,24.3670
2023-05-02T08:49:25.323Z,24.3461
2023-05-02T08:50:26.772Z,24.3439
2023-05-02T08:51:28.088Z,24.3427
2023-05-02T08:52:29.506Z,24.3560
2023-05-02T08:53:31.027Z,24.3433
2023-05-02T08:54:32.422Z,24.3252
2023-05-02T08:55:33.748Z,24.3306
2023-05-02T08:56:35.205Z,24.3414
2023-05-02T08:57:36.668Z,24.3596
2023-05-02T08:58:38.154Z,24.3341
2023-05-02T08:59:39.546Z,24.3209
2023-05-02T09:00:40.991Z,24.2873
2023-05-02T09:01:42.371Z,24.2826
2023-05-02T09:02:43.865Z,24.2513
2023-05-02T09:03:45.205Z,24.2293
2023-05-02T09:04:46.769Z,24.2453
2023-05-02T09:05:47.999Z,24.2613
2023-05-02T09:06:49.499Z,24.2888
2023-05-02T09:07:50.832Z,24.2390
2023-05-02T09:08:52.276Z,24.2229
2023-05-02T09:09:53.729Z,24.2266
2023-05-02T09:10:55.213Z,24.2448
2023-05-02T09:11:56.475Z,24.2334
2023-05-02T09:12:57.981Z,24.2375
2023-05-02T09:13:59.388Z,24.2409
2023-05-02T09:15:01.033Z,24.2678
2023-05-02T09:16:02.208Z,24.2725
2023-05-02T09:17:03.844Z,24.2689
2023-05-02T09:18:05.151Z,24.2676
2023-05-02T09:19:06.497Z,24.2691
2023-05-02T09:20:07.913Z,24.2710
2023-05-02T09:21:09.379Z,24.2741
2023-05-02T09:22:10.791Z,24.2770
2023-05-02T09:23:12.249Z,24.2647
2023-05-02T09:24:13.677Z,24.2629
2023-05-02T09:25:15.098Z,24.2682
2023-05-02T09:26:16.464Z,24.2846
2023-05-02T09:27:17.900Z,24.2947
2023-05-02T09:28:19.270Z,24.3007
2023-05-02T09:29:20.714Z,24.2982
2023-05-02T09:30:22.235Z,24.2861
2023-05-02T09:32:24.987Z,24.2901
2023-05-02T09:33:26.467Z,24.3025
2023-05-02T09:34:27.825Z,24.3047
2023-05-02T09:35:29.326Z,24.3115
2023-05-02T09:36:30.727Z,24.3235
2023-05-02T09:37:32.182Z,24.3359
2023-05-02T09:38:33.529Z,24.3329
2023-05-02T09:39:34.973Z,24.3376
2023-05-02T09:40:36.399Z,24.3520
2023-05-02T09:41:37.858Z,24.3602
2023-05-02T09:42:39.230Z,24.3647
2023-05-02T09:43:40.683Z,24.3892
2023-05-02T09:44:42.061Z,24.4221
2023-05-02T09:45:43.592Z,24.4118
2023-05-02T09:46:45.034Z,24.4051
2023-05-02T09:47:46.361Z,24.4010
2023-05-02T09:48:47.776Z,24.4172
2023-05-02T09:49:49.241Z,24.4532
2023-05-02T09:50:50.691Z,24.4788
2023-05-02T09:51:52.153Z,24.5512
2023-05-02T09:52:53.499Z,24.6403
2023-05-02T09:53:54.984Z,24.6733
2023-05-02T09:54:56.363Z,24.6967
2023-05-02T09:55:57.840Z,24.7045
2023-05-02T09:56:59.225Z,24.6977
2023-05-02T09:58:00.594Z,24.7353
2023-05-02T09:59:02.050Z,24.7220
2023-05-02T10:00:03.756Z,24.7485
2023-05-02T10:01:05.002Z,24.8265
2023-05-02T10:02:06.323Z,24.8495
2023-05-02T10:03:07.823Z,24.8522
2023-05-02T10:04:09.658Z,24.7914
2023-05-02T10:05:10.615Z,24.7401
2023-05-02T10:06:12.158Z,24.7299
2023-05-02T10:07:13.568Z,24.7086
2023-05-02T10:08:14.902Z,24.6928
2023-05-02T10:09:19.783Z,24.7167
2023-05-02T10:10:17.707Z,24.7001
2023-05-02T10:11:19.242Z,24.6771
2023-05-02T10:12:20.570Z,24.6740
2023-05-02T10:13:21.988Z,24.6589
2023-05-02T10:14:23.402Z,24.6496
2023-05-02T10:15:24.820Z,24.6188
2023-05-02T10:16:26.282Z,24.5704
2023-05-02T10:17:27.730Z,24.5809
2023-05-02T10:18:29.097Z,24.6040
2023-05-02T10:19:30.492Z,24.6080
2023-05-02T10:20:31.970Z,24.6186
2023-05-02T10:21:33.429Z,24.6355
2023-05-02T10:22:34.835Z,24.6315
2023-05-02T10:23:36.142Z,24.6244
2023-05-02T10:24:37.645Z,24.6224
2023-05-02T10:25:39.050Z,24.6293
2023-05-02T10:26:40.474Z,24.6689
2023-05-02T10:27:41.876Z,24.6750
2023-05-02T10:28:43.407Z,24.6977
2023-05-02T10:29:44.701Z,24.7170
2023-05-02T10:30:46.134Z,24.7241
2023-05-02T10:31:47.603Z,24.7214
2023-05-02T10:32:49.053Z,24.7078
2023-05-02T10:33:50.424Z,24.6912
2023-05-02T10:34:51.831Z,24.6894
2023-05-02T10:35:53.240Z,24.6947
2023-05-02T10:36:54.675Z,24.7278
2023-05-02T10:37:56.105Z,24.7328
2023-05-02T10:38:57.589Z,24.7411
2023-05-02T10:39:58.984Z,24.7216
2023-05-02T10:41:00.337Z,24.6955
2023-05-02T10:42:01.759Z,24.6945
2023-05-02T10:43:03.187Z,24.7137
2023-05-02T10:44:04.676Z,24.7058
2023-05-02T10:45:06.025Z,24.6937
2023-05-02T10:46:07.478Z,24.7069
2023-05-02T10:47:08.834Z,24.7024
2023-05-02T10:48:10.402Z,24.7087
2023-05-02T10:49:11.713Z,24.7086
2023-05-02T10:50:13.167Z,24.7056
2023-05-02T10:51:14.554Z,24.7143
2023-05-02T10:52:15.888Z,24.7324
2023-05-02T10:53:17.395Z,24.7378
2023-05-02T10:54:18.858Z,24.7463
2023-05-02T10:55:20.214Z,24.7199
2023-05-02T10:56:21.679Z,24.6932
2023-05-02T10:57:23.029Z,24.6817
2023-05-02T10:58:24.559Z,24.6578
2023-05-02T10:59:25.924Z,24.6980
2023-05-02T11:00:27.398Z,24.7258
2023-05-02T11:01:28.858Z,24.7469
2023-05-02T11:02:30.227Z,24.7361
2023-05-02T11:03:31.620Z,24.7777
2023-05-02T11:04:33.056Z,24.8298
2023-05-02T11:05:34.427Z,24.8057
2023-05-02T11:06:35.908Z,24.8015
2023-05-02T11:07:37.232Z,24.8232
2023-05-02T11:08:38.617Z,24.8047
2023-05-02T11:09:40.128Z,24.8009
2023-05-02T11:10:41.575Z,24.7659
2023-05-02T11:11:43.299Z,24.7792
2023-05-02T11:12:44.309Z,24.8473
2023-05-02T11:13:45.778Z,24.8491
2023-05-02T11:14:47.314Z,24.7994
2023-05-02T11:15:48.678Z,24.8330
2023-05-02T11:16:50.085Z,24.8468
2023-05-02T11:17:51.448Z,24.8193
2023-05-02T11:18:52.875Z,24.7687
2023-05-02T11:19:54.318Z,24.7952
2023-05-02T11:20:55.765Z,24.8103
2023-05-02T11:21:57.119Z,24.7980
2023-05-02T11:22:58.604Z,24.7845
2023-05-02T11:23:59.933Z,24.8225
2023-05-02T11:25:01.748Z,24.8387
2023-05-02T11:26:02.859Z,24.8235
2023-05-02T11:27:04.245Z,24.8190
2023-05-02T11:28:05.681Z,24.8413
2023-05-02T11:29:07.090Z,24.8469
2023-05-02T11:30:08.491Z,24.8508
2023-05-02T11:31:09.974Z,24.9600
2023-05-02T11:32:11.348Z,24.9672
2023-05-02T11:33:12.808Z,24.9060
2023-05-02T11:34:14.141Z,24.8281
2023-05-02T11:35:15.612Z,24.7437
2023-05-02T11:36:17.152Z,24.7280
2023-05-02T11:37:18.449Z,24.7490
2023-05-02T11:38:19.878Z,24.8199
2023-05-02T11:39:21.302Z,24.8659
2023-05-02T11:40:22.722Z,24.8685
2023-05-02T11:41:24.195Z,24.8432
2023-05-02T11:42:25.554Z,24.8126
2023-05-02T11:43:28.165Z,24.8151
2023-05-02T11:44:28.360Z,24.8081
2023-05-02T11:45:29.884Z,24.8077
2023-05-02T11:46:31.340Z,24.7821
2023-05-02T11:47:32.762Z,24.7274
2023-05-02T11:48:34.161Z,24.6708
2023-05-02T11:49:35.527Z,24.6234
2023-05-02T11:50:37.728Z,24.6173
2023-05-02T11:51:38.426Z,24.6525
2023-05-02T11:52:39.746Z,24.6819
2023-05-02T11:53:41.250Z,24.7840
2023-05-02T11:54:42.613Z,24.7818
2023-05-02T11:55:44.022Z,24.7484
2023-05-02T11:56:45.510Z,24.7421
2023-05-02T11:57:46.977Z,24.6984
2023-05-02T11:58:48.288Z,24.6746
2023-05-02T11:59:49.758Z,24.6748
2023-05-02T12:00:51.147Z,24.7136
2023-05-02T12:01:52.625Z,24.7817
2023-05-02T12:02:54.064Z,24.8176
2023-05-02T12:03:55.531Z,24.8358
2023-05-02T12:04:56.811Z,24.7842
2023-05-02T12:05:58.285Z,24.7477
2023-05-02T12:06:59.708Z,24.7679
2023-05-02T12:08:01.180Z,24.8082
2023-05-02T12:09:02.493Z,24.7391
2023-05-02T12:10:03.974Z,24.7144
2023-05-02T12:11:05.344Z,24.7244
2023-05-02T12:12:06.852Z,24.6750
2023-05-02T12:13:10.103Z,24.6343
2023-05-02T12:14:09.633Z,24.6211
2023-05-02T12:15:11.134Z,24.5997
2023-05-02T12:16:12.618Z,24.5839
2023-05-02T12:17:13.931Z,24.5777
2023-05-02T12:18:15.395Z,24.5705
2023-05-02T12:19:16.823Z,24.5346
2023-05-02T12:20:18.295Z,24.5350
2023-05-02T12:21:19.636Z,24.5575
2023-05-02T12:22:21.121Z,24.5910
2023-05-02T12:23:22.505Z,24.6216